Rechercher aéroport 
image banner adimage banner adimage banner ad
image banner ad

PA60 - Chambersburg Hospital

Situé à Chambersburg, United States

ICAO - PA60, IATA -

Données fournies par Airmate  

Information générale

Coordonnées: N39°55'59" W77°38'45"
Élévation : 640 feet MSL.
Variation magnétique : -09° East
Voir autres Aéroports à Pennsylvania

Données opérationnelles

Special qualification required
Heure actuelle UTC:
Heure actuelle locale:
METAR: KHGR 152153Z 31008KT 10SM SCT085 BKN110 23/12 A2985 RMK AO2 SLP112 T02330117 $
Voir NOTAMs / SUP AIP / TFR affectant cet aéroport [VIEW]
Fréquences de communication: [VIEW]

Pistes:

Coordonnées de l'aéroport

Adresse: Chambersburg United States

Vue satellite de PA60